Time;durP1;ratioP1;P1;durP2;ratioP2;P2;SDS_P1;SDS_P2;PMS_P1;PMS_P2;Temp;Humidity;BMP_temperature;BMP_pressure;BME280_temperature;BME280_humidity;BME280_pressure;Samples;Min_cycle;Max_cycle;Signal;HPM_P1;HPM_P2
2023/06/21 00:08:33;;;;;;;31.13;27.73;;;17.50;99.90;;;;;;4715624;29;20737;-82
2023/06/21 00:34:39;;;;;;;31.27;27.97;;;17.40;99.90;;;;;;4825882;28;20820;-80
2023/06/21 00:38:59;;;;;;;31.93;28.67;;;17.20;99.90;;;;;;4723324;29;20657;-84
2023/06/21 01:04:23;;;;;;;34.93;30.53;;;17.00;99.90;;;;;;4571819;30;20534;-83
2023/06/21 01:34:48;;;;;;;34.47;30.87;;;16.80;99.90;;;;;;4678801;29;20551;-80
2023/06/21 02:00:16;;;;;;;37.47;32.57;;;16.50;99.90;;;;;;4573272;30;20674;-81
2023/06/21 02:31:08;;;;;;;39.67;35.37;;;16.60;99.90;;;;;;4645581;29;20299;-84
2023/06/21 02:55:56;;;;;;;43.97;38.63;;;16.60;99.90;;;;;;4657792;29;20591;-83
2023/06/21 03:16:44;;;;;;;41.07;36.33;;;17.20;99.90;;;;;;4683140;29;20225;-83
2023/06/21 03:42:07;;;;;;;35.33;31.73;;;18.50;99.90;;;;;;4724979;29;20204;-84
2023/06/21 04:12:35;;;;;;;28.47;25.67;;;20.00;99.90;;;;;;4707269;29;20252;-83
2023/06/21 04:42:27;;;;;;;26.92;24.33;;;21.60;99.90;;;;;;4723658;29;20300;-81
2023/06/21 05:08:22;;;;;;;26.07;23.47;;;21.40;99.90;;;;;;4694037;29;20328;-84
2023/06/21 06:24:27;;;;;;;19.25;17.50;;;23.60;94.70;;;;;;4631416;30;20234;-85
2023/06/21 06:49:44;;;;;;;17.45;15.85;;;26.00;87.80;;;;;;4575146;30;20261;-85
2023/06/21 07:40:40;;;;;;;14.40;13.23;;;28.40;77.50;;;;;;4643415;30;20327;-87
2023/06/21 08:10:28;;;;;;;13.05;12.05;;;29.20;68.50;;;;;;4498802;30;20511;-84
2023/06/21 08:31:24;;;;;;;11.68;10.77;;;30.00;58.30;;;;;;4759679;29;20862;-84
2023/06/21 08:56:47;;;;;;;12.75;11.60;;;30.90;58.50;;;;;;4756677;29;20613;-86
2023/06/21 09:56:02;;;;;;;13.40;12.05;;;30.80;57.90;;;;;;6054549;23;20190;-86
2023/06/21 10:26:28;;;;;;;12.23;11.02;;;30.90;53.40;;;;;;5786347;24;20536;-83
2023/06/21 10:47:30;;;;;;;12.90;11.70;;;29.40;54.00;;;;;;5889359;23;20173;-82
2023/06/21 10:51:50;;;;;;;12.98;11.88;;;29.40;54.50;;;;;;5756586;24;20493;-86
2023/06/21 11:22:35;;;;;;;15.05;13.75;;;27.80;79.30;;;;;;5798790;24;20205;-85
2023/06/21 12:43:42;;;;;;;19.20;17.42;;;22.70;99.90;;;;;;5681352;24;20667;-86
2023/06/21 13:18:56;;;;;;;17.77;16.15;;;25.10;94.10;;;;;;5693434;24;20820;-87
2023/06/21 13:50:01;;;;;;;17.27;15.85;;;25.50;96.30;;;;;;5722343;24;20184;-85
2023/06/21 14:15:16;;;;;;;15.88;14.48;;;26.40;89.30;;;;;;5819971;24;20308;-84
2023/06/21 14:40:32;;;;;;;15.00;13.55;;;28.90;80.10;;;;;;5869704;23;20201;-84
2023/06/21 15:56:51;;;;;;;10.90;9.90;;;25.20;90.20;;;;;;5703715;24;20232;-84
2023/06/21 16:17:10;;;;;;;13.15;10.82;;;23.10;99.90;;;;;;5809373;24;20235;-83
2023/06/21 17:02:43;;;;;;;17.67;15.88;;;22.10;99.90;;;;;;5684845;24;20351;-83
2023/06/21 17:22:30;;;;;;;24.88;18.55;;;22.00;99.90;;;;;;6209450;22;20507;31
2023/06/21 17:32:44;;;;;;;19.77;17.77;;;21.90;99.90;;;;;;6224249;22;20199;-84
2023/06/21 17:57:50;;;;;;;26.98;22.90;;;21.60;99.90;;;;;;5815172;24;20439;-87
2023/06/21 18:18:39;;;;;;;30.75;27.73;;;21.50;99.90;;;;;;5894584;23;20661;-84
2023/06/21 18:43:57;;;;;;;37.63;33.58;;;21.50;99.90;;;;;;5978891;23;20161;-82
2023/06/21 19:14:17;;;;;;;37.03;33.20;;;21.10;99.90;;;;;;5920431;23;20211;-86
2023/06/21 19:39:07;;;;;;;37.20;33.47;;;21.00;99.90;;;;;;5773626;24;20499;-85
2023/06/21 20:00:09;;;;;;;38.05;34.25;;;20.90;99.90;;;;;;5884612;24;20745;-87
2023/06/21 20:30:24;;;;;;;42.30;38.10;;;20.70;99.90;;;;;;5878876;24;20240;-86
2023/06/21 20:55:36;;;;;;;43.80;39.37;;;20.60;99.90;;;;;;5689067;24;20334;-83
2023/06/21 21:25:40;;;;;;;44.87;40.23;;;20.60;99.90;;;;;;5928355;23;20496;-83
2023/06/21 21:51:24;;;;;;;41.37;37.30;;;20.60;99.90;;;;;;5758573;24;20258;-81
2023/06/21 22:32:12;;;;;;;45.77;41.17;;;20.10;99.90;;;;;;6226803;22;20212;-81
2023/06/21 22:56:55;;;;;;;43.90;39.60;;;20.30;99.90;;;;;;5741682;24;20413;-83
2023/06/21 23:17:44;;;;;;;44.63;40.33;;;20.00;99.90;;;;;;5620877;24;20254;-81
